Alamogordo, New Mexico
Current Conditions -  °F | °C
As of 5:58 PM on Saturday 25 Oct 2014 (Local Time) from KHMN Reporting Station
Clear Clear  
Wind Chill: 80°   Ceiling: Unl
Heat Index: 80°   Visibility: 10mi
Dew Point: 43°   Wind: 7mph
Humidity: 27%   Direction: 150°SSE
Pressure: 30.12"   Gusts: NA
Location:  32.9°N, 105.96°W
Report Text: KHMN 252358Z AUTO 15006KT 10SM CLR 27/06 A3012 RMK AO2 SLP145 T02660060 10284 20239 57011 $
Loading
Personal Weather Stations






























Interactive Weather Map
Tropical Storm Tracking
New forecast layout! Learn more

10-Day Weather Forecast

Advertisements
Track Severe Weather on mobile